Time;durP1;ratioP1;P1;durP2;ratioP2;P2;SDS_P1;SDS_P2;PMS_P1;PMS_P2;Temp;Humidity;BMP_temperature;BMP_pressure;BME280_temperature;BME280_humidity;BME280_pressure;Samples;Min_cycle;Max_cycle;Signal;HPM_P1;HPM_P2
2023/02/16 00:01:51;;;;;;;21.70;14.48;;;;;2.10;99483.00;;;;5080769;28;20044;-61
2023/02/16 00:04:24;;;;;;;19.70;13.73;;;;;2.10;99477.00;;;;5080465;28;20045;-61
2023/02/16 00:06:51;;;;;;;19.27;13.45;;;;;2.10;99477.00;;;;5080915;28;20101;-61
2023/02/16 00:09:19;;;;;;;20.92;13.90;;;;;2.20;99481.00;;;;5081346;28;20048;-61
2023/02/16 00:14:36;;;;;;;20.08;13.38;;;;;2.20;99475.00;;;;5080518;28;20049;-61
2023/02/16 00:17:03;;;;;;;20.38;14.02;;;;;2.10;99467.00;;;;5081432;28;20098;-61
2023/02/16 00:19:36;;;;;;;18.38;13.63;;;;;2.10;99464.00;;;;5080948;28;20044;-62
2023/02/16 00:22:03;;;;;;;21.02;14.27;;;;;2.10;99465.00;;;;5081069;28;20052;-61
2023/02/16 00:24:30;;;;;;;19.58;14.15;;;;;2.20;99466.00;;;;5079900;28;20066;-61
2023/02/16 00:26:58;;;;;;;20.98;14.60;;;;;2.10;99476.00;;;;5081480;28;20049;-62
2023/02/16 00:29:29;;;;;;;20.23;14.23;;;;;2.00;99467.00;;;;5080850;28;20044;-61
2023/02/16 00:31:57;;;;;;;22.17;14.48;;;;;2.10;99468.00;;;;5079759;28;20040;-62
2023/02/16 00:34:40;;;;;;;20.10;14.18;;;;;1.90;99474.00;;;;5077292;28;20052;-61
2023/02/16 00:37:11;;;;;;;20.23;14.48;;;;;1.90;99483.00;;;;5077923;28;20075;-61
2023/02/16 00:39:39;;;;;;;20.58;14.20;;;;;2.10;99481.00;;;;5077946;28;20048;-60
2023/02/16 00:42:10;;;;;;;20.52;14.45;;;;;2.10;99468.00;;;;5076508;28;20048;-60
2023/02/16 00:44:54;;;;;;;21.02;15.10;;;;;2.10;99471.00;;;;5073694;28;20045;-63
2023/02/16 00:47:24;;;;;;;20.08;13.95;;;;;2.10;99475.00;;;;5074684;28;20402;-61
2023/02/16 00:49:53;;;;;;;21.63;14.65;;;;;2.10;99473.00;;;;5074700;28;20040;-61
2023/02/16 00:52:41;;;;;;;20.10;14.75;;;;;2.10;99470.00;;;;5073032;28;20059;-60
2023/02/16 00:55:09;;;;;;;19.70;13.63;;;;;2.20;99474.00;;;;5073990;28;20038;-60
2023/02/16 00:57:41;;;;;;;18.83;14.23;;;;;2.20;99468.00;;;;5074437;28;20053;-60
2023/02/16 01:00:11;;;;;;;17.52;12.73;;;;;2.20;99469.00;;;;5073260;28;20501;-62
2023/02/16 01:02:38;;;;;;;19.52;13.85;;;;;2.30;99464.00;;;;5073281;28;20064;-62
2023/02/16 01:05:05;;;;;;;21.83;14.48;;;;;2.30;99469.00;;;;5073632;28;20048;-60
2023/02/16 01:13:05;;;;;;;23.10;15.68;;;;;2.20;99481.00;;;;5058974;28;20064;-62
2023/02/16 01:15:33;;;;;;;20.58;14.40;;;;;2.20;99491.00;;;;5072156;28;20048;-61
2023/02/16 01:18:00;;;;;;;22.35;15.07;;;;;2.10;99482.00;;;;5074107;28;20142;-62
2023/02/16 01:20:27;;;;;;;19.33;13.93;;;;;2.10;99477.00;;;;5076345;28;20040;-61
2023/02/16 01:22:53;;;;;;;20.98;14.25;;;;;2.10;99477.00;;;;5075791;28;20040;-61
2023/02/16 01:25:20;;;;;;;23.17;15.32;;;;;2.10;99478.00;;;;5074461;28;20048;-62
2023/02/16 01:27:47;;;;;;;20.42;14.75;;;;;2.10;99480.00;;;;5072481;28;20041;-62
2023/02/16 01:30:17;;;;;;;20.40;14.10;;;;;2.10;99483.00;;;;5073874;28;20074;-62
2023/02/16 01:32:50;;;;;;;22.90;14.80;;;;;2.10;99477.00;;;;5073828;28;20409;-62
2023/02/16 01:35:22;;;;;;;19.52;13.95;;;;;2.10;99474.00;;;;5073578;28;20040;-62
2023/02/16 01:37:49;;;;;;;18.77;14.00;;;;;2.00;99478.00;;;;5072050;28;20045;-62
2023/02/16 01:40:36;;;;;;;20.58;14.18;;;;;2.00;99473.00;;;;5073687;28;20123;-62
2023/02/16 01:43:23;;;;;;;21.27;14.38;;;;;2.10;99468.00;;;;5072257;28;20044;-62
2023/02/16 01:45:59;;;;;;;21.20;14.35;;;;;2.10;99470.00;;;;5072901;28;20037;-62
2023/02/16 01:48:28;;;;;;;22.10;14.48;;;;;2.10;99470.00;;;;5073591;28;20458;-61
2023/02/16 01:51:02;;;;;;;21.75;14.85;;;;;2.10;99467.00;;;;5072591;28;20056;-60
2023/02/16 01:53:41;;;;;;;22.63;14.27;;;;;2.10;99462.00;;;;5072259;28;20406;-61
2023/02/16 01:56:23;;;;;;;19.25;14.23;;;;;2.00;99458.00;;;;5070430;28;20071;-61
2023/02/16 01:58:54;;;;;;;20.73;13.70;;;;;2.00;99456.00;;;;5074044;28;20141;-61
2023/02/16 02:01:29;;;;;;;22.80;14.38;;;;;2.00;99456.00;;;;5074317;28;20044;-60
2023/02/16 02:06:45;;;;;;;21.20;14.18;;;;;1.80;99459.00;;;;5072076;28;20094;-61
2023/02/16 02:09:41;;;;;;;20.33;14.55;;;;;1.70;99447.00;;;;5071769;28;20052;-61
2023/02/16 02:12:20;;;;;;;21.45;14.07;;;;;1.60;99449.00;;;;5071703;28;20508;-61
2023/02/16 02:14:48;;;;;;;18.90;12.93;;;;;1.50;99449.00;;;;5072573;28;20040;-61
2023/02/16 02:17:17;;;;;;;20.05;14.52;;;;;1.60;99442.00;;;;5071792;28;20455;-61
2023/02/16 02:19:53;;;;;;;21.23;13.68;;;;;1.60;99435.00;;;;5071621;28;20047;-62
2023/02/16 02:25:52;;;;;;;19.55;13.15;;;;;1.60;99449.00;;;;5070744;28;20045;-61
2023/02/16 02:28:53;;;;;;;22.30;12.63;;;;;1.50;99441.00;;;;5071301;28;20076;-61
2023/02/16 02:31:31;;;;;;;21.17;13.30;;;;;1.50;99441.00;;;;5071347;28;20135;-61
2023/02/16 02:34:17;;;;;;;20.75;13.70;;;;;1.50;99449.00;;;;5071321;28;20058;-61
2023/02/16 02:36:43;;;;;;;19.38;13.65;;;;;1.60;99442.00;;;;5071317;28;20051;-61
2023/02/16 02:39:29;;;;;;;22.08;14.20;;;;;1.60;99440.00;;;;5071552;28;20048;-61
2023/02/16 02:42:09;;;;;;;20.38;13.75;;;;;1.70;99435.00;;;;5071309;28;20452;-60
2023/02/16 02:45:03;;;;;;;18.58;13.50;;;;;1.60;99435.00;;;;5071794;28;20043;-60
2023/02/16 02:47:42;;;;;;;20.98;14.15;;;;;1.50;99433.00;;;;5071183;28;20063;-62
2023/02/16 02:50:30;;;;;;;20.45;13.43;;;;;1.30;99434.00;;;;5072343;28;20041;-60
2023/02/16 02:53:02;;;;;;;20.80;13.85;;;;;1.20;99426.00;;;;5071271;28;20049;-61
2023/02/16 03:01:08;;;;;;;21.25;13.63;;;;;1.30;99421.00;;;;5071147;28;20052;-61
2023/02/16 03:03:41;;;;;;;18.30;13.02;;;;;1.20;99419.00;;;;5070969;28;20055;-61
2023/02/16 03:06:16;;;;;;;25.50;14.77;;;;;1.20;99415.00;;;;5071649;28;20051;-61
2023/02/16 03:08:46;;;;;;;16.52;13.35;;;;;1.20;99423.00;;;;5072101;28;20432;-60
2023/02/16 03:14:21;;;;;;;19.17;12.02;;;;;1.30;99419.00;;;;5071612;28;20048;-60
2023/02/16 03:30:49;;;;;;;19.73;12.40;;;;;1.40;99426.00;;;;5071953;28;20040;-61
2023/02/16 03:33:16;;;;;;;19.50;13.57;;;;;1.40;99424.00;;;;5071832;28;20055;-62
2023/02/16 03:35:44;;;;;;;20.27;13.43;;;;;1.40;99429.00;;;;5071396;28;20036;-62
2023/02/16 03:38:11;;;;;;;20.63;13.77;;;;;1.40;99433.00;;;;5071954;28;20052;-61
2023/02/16 03:40:39;;;;;;;18.58;12.57;;;;;1.40;99426.00;;;;5072062;28;20555;-61
2023/02/16 03:43:07;;;;;;;17.80;13.27;;;;;1.40;99423.00;;;;5075080;28;20547;-61
2023/02/16 03:45:40;;;;;;;20.35;13.93;;;;;1.30;99435.00;;;;5072740;28;20045;-60
2023/02/16 03:48:07;;;;;;;20.17;13.43;;;;;1.20;99433.00;;;;5073102;28;20051;-61
2023/02/16 03:50:34;;;;;;;17.58;12.88;;;;;1.30;99432.00;;;;5072126;28;20282;-61
2023/02/16 03:53:07;;;;;;;18.88;13.43;;;;;1.30;99440.00;;;;5072700;28;20051;-61
2023/02/16 03:55:44;;;;;;;19.25;13.75;;;;;1.30;99435.00;;;;5071761;28;20051;-61
2023/02/16 03:58:18;;;;;;;16.23;12.55;;;;;1.10;99435.00;;;;5072831;28;20051;-61
2023/02/16 04:00:44;;;;;;;20.87;13.53;;;;;1.10;99431.00;;;;5072422;28;20056;-61
2023/02/16 04:03:11;;;;;;;17.20;12.45;;;;;1.10;99444.00;;;;5072551;28;20409;-61
2023/02/16 04:05:38;;;;;;;19.88;12.73;;;;;1.10;99437.00;;;;5072070;28;20477;-60
2023/02/16 04:08:05;;;;;;;19.00;13.20;;;;;1.10;99441.00;;;;5073595;28;20048;-61
2023/02/16 04:10:32;;;;;;;19.88;13.48;;;;;1.00;99433.00;;;;5073315;28;20076;-61
2023/02/16 04:12:58;;;;;;;21.08;13.18;;;;;1.00;99432.00;;;;5072732;28;20052;-61
2023/02/16 04:15:27;;;;;;;20.02;13.02;;;;;1.00;99432.00;;;;5072344;28;20044;-61
2023/02/16 04:17:54;;;;;;;17.33;12.75;;;;;1.00;99432.00;;;;5072932;28;20099;-61
2023/02/16 04:20:23;;;;;;;18.55;12.90;;;;;0.90;99437.00;;;;5074859;28;20051;-61
2023/02/16 04:22:50;;;;;;;18.42;12.55;;;;;0.80;99427.00;;;;5076919;28;20036;-62
2023/02/16 04:25:17;;;;;;;16.73;12.05;;;;;0.80;99423.00;;;;5077732;28;20114;-61
2023/02/16 04:27:45;;;;;;;18.73;13.23;;;;;0.80;99418.00;;;;5077008;28;20412;-61
2023/02/16 04:30:14;;;;;;;18.40;12.68;;;;;0.70;99417.00;;;;5077036;28;20048;-61
2023/02/16 04:32:41;;;;;;;19.27;12.77;;;;;0.70;99424.00;;;;5075781;28;20154;-61
2023/02/16 04:35:08;;;;;;;19.63;12.85;;;;;0.60;99418.00;;;;5073870;28;20052;-61
2023/02/16 04:37:35;;;;;;;18.23;12.60;;;;;0.60;99421.00;;;;5074502;28;20060;-62
2023/02/16 04:40:03;;;;;;;16.90;12.73;;;;;0.70;99426.00;;;;5077536;28;20055;-61
2023/02/16 04:42:29;;;;;;;20.05;13.10;;;;;0.60;99412.00;;;;5082735;28;20040;-60
2023/02/16 04:44:56;;;;;;;25.50;16.20;;;;;0.60;99421.00;;;;5086578;28;20048;-61
2023/02/16 04:47:24;;;;;;;18.02;11.50;;;;;0.70;99405.00;;;;5086261;28;20122;-61
2023/02/16 04:49:52;;;;;;;22.83;13.05;;;;;0.70;99421.00;;;;5085130;28;20132;-62
2023/02/16 04:52:19;;;;;;;19.88;12.90;;;;;0.70;99406.00;;;;5084658;28;20041;-60
2023/02/16 04:54:45;;;;;;;19.17;13.25;;;;;0.60;99418.00;;;;5083935;28;20098;-61
2023/02/16 04:57:12;;;;;;;18.48;12.75;;;;;0.70;99425.00;;;;5079708;28;20040;-61
2023/02/16 04:59:38;;;;;;;17.42;12.07;;;;;0.70;99419.00;;;;5076565;28;20044;-61
2023/02/16 05:02:05;;;;;;;17.58;12.88;;;;;0.80;99421.00;;;;5075479;28;20102;-61
2023/02/16 05:04:32;;;;;;;19.73;13.25;;;;;0.80;99428.00;;;;5075295;28;20098;-61
2023/02/16 05:06:58;;;;;;;20.27;13.88;;;;;0.70;99427.00;;;;5075992;28;20102;-61
2023/02/16 05:09:25;;;;;;;20.67;12.65;;;;;0.80;99425.00;;;;5077360;28;20048;-61
2023/02/16 05:14:43;;;;;;;18.98;13.35;;;;;0.80;99429.00;;;;5077061;28;20057;-60
2023/02/16 05:17:17;;;;;;;20.02;13.05;;;;;0.80;99425.00;;;;5077872;28;20044;-61
2023/02/16 05:19:46;;;;;;;20.60;13.18;;;;;0.80;99425.00;;;;5076218;28;20037;-62
2023/02/16 05:22:13;;;;;;;19.77;12.73;;;;;0.70;99423.00;;;;5075643;28;20051;-61
2023/02/16 05:24:41;;;;;;;21.73;14.00;;;;;0.60;99420.00;;;;5074061;28;20137;-61
2023/02/16 05:27:12;;;;;;;17.45;12.70;;;;;0.50;99427.00;;;;5075111;28;20405;-61
2023/02/16 05:29:38;;;;;;;20.48;13.57;;;;;0.50;99420.00;;;;5075025;28;20045;-62
2023/02/16 05:32:05;;;;;;;18.50;13.63;;;;;0.50;99425.00;;;;5074438;28;20032;-61
2023/02/16 05:34:31;;;;;;;21.05;13.23;;;;;0.40;99427.00;;;;5074088;28;20036;-62
2023/02/16 05:36:58;;;;;;;20.30;12.90;;;;;0.40;99424.00;;;;5077807;28;20036;-62
2023/02/16 05:39:24;;;;;;;21.00;13.95;;;;;0.50;99425.00;;;;5080885;28;20067;-61
2023/02/16 05:41:51;;;;;;;22.05;14.40;;;;;0.50;99432.00;;;;5085068;28;20520;-61
2023/02/16 05:44:17;;;;;;;24.90;14.57;;;;;0.50;99435.00;;;;5084527;28;20041;-61
2023/02/16 05:46:45;;;;;;;21.40;13.27;;;;;0.40;99428.00;;;;5085143;28;20090;-61
2023/02/16 05:49:13;;;;;;;22.33;14.40;;;;;0.40;99430.00;;;;5085353;28;20049;-61
2023/02/16 05:51:40;;;;;;;26.98;14.60;;;;;0.40;99430.00;;;;5084142;28;20067;-61
2023/02/16 05:54:09;;;;;;;24.35;13.88;;;;;0.40;99444.00;;;;5080311;28;20067;-61
2023/02/16 05:56:36;;;;;;;21.48;14.32;;;;;0.40;99437.00;;;;5074947;28;20047;-61
2023/02/16 05:59:02;;;;;;;22.45;15.10;;;;;0.50;99446.00;;;;5075553;28;20044;-61
2023/02/16 06:01:29;;;;;;;20.98;15.38;;;;;0.60;99449.00;;;;5074754;28;20044;-62
2023/02/16 06:03:55;;;;;;;19.88;14.05;;;;;0.60;99454.00;;;;5075351;28;20051;-61
2023/02/16 06:06:22;;;;;;;18.80;13.32;;;;;0.60;99453.00;;;;5076954;28;20041;-61
2023/02/16 06:08:48;;;;;;;21.55;13.88;;;;;0.60;99444.00;;;;5074241;28;20052;-61
2023/02/16 06:14:02;;;;;;;28.63;14.48;;;;;0.60;99455.00;;;;5074198;28;20040;-61
2023/02/16 06:16:30;;;;;;;18.63;12.55;;;;;0.70;99444.00;;;;5073419;28;20094;-61
2023/02/16 06:18:57;;;;;;;18.60;12.98;;;;;0.70;99461.00;;;;5073835;28;20051;-62
2023/02/16 06:21:24;;;;;;;18.63;12.90;;;;;0.70;99463.00;;;;5073562;28;20094;-61
2023/02/16 06:23:51;;;;;;;19.55;13.57;;;;;0.60;99458.00;;;;5073255;28;20107;-61
2023/02/16 06:26:18;;;;;;;23.27;14.02;;;;;0.40;99454.00;;;;5071791;28;20503;-62
2023/02/16 06:28:45;;;;;;;19.90;12.82;;;;;0.30;99465.00;;;;5072109;28;20044;-62
2023/02/16 06:31:11;;;;;;;18.13;12.73;;;;;0.30;99461.00;;;;5071925;28;20052;-62
2023/02/16 06:33:38;;;;;;;21.05;13.27;;;;;0.30;99462.00;;;;5073158;28;20044;-62
2023/02/16 06:36:05;;;;;;;21.25;14.10;;;;;0.20;99465.00;;;;5072201;28;20424;-62
2023/02/16 06:38:32;;;;;;;20.25;13.65;;;;;0.20;99458.00;;;;5071612;28;20048;-62
2023/02/16 06:40:58;;;;;;;20.52;13.95;;;;;0.30;99461.00;;;;5072862;28;20044;-62
2023/02/16 06:43:25;;;;;;;20.42;13.63;;;;;0.30;99458.00;;;;5072018;28;20056;-63
2023/02/16 06:45:55;;;;;;;17.55;12.75;;;;;0.30;99458.00;;;;5071948;28;20041;-62
2023/02/16 06:48:21;;;;;;;19.73;13.23;;;;;0.20;99457.00;;;;5073089;28;20113;-63
2023/02/16 06:50:48;;;;;;;19.83;13.57;;;;;0.20;99456.00;;;;5072872;28;20040;-61
2023/02/16 06:53:19;;;;;;;23.25;13.90;;;;;0.20;99451.00;;;;5072509;28;20041;-61
2023/02/16 06:55:46;;;;;;;20.45;12.93;;;;;0.30;99453.00;;;;5072128;28;20047;-61
2023/02/16 06:58:12;;;;;;;19.52;13.05;;;;;0.30;99463.00;;;;5072700;28;20052;-61
2023/02/16 07:00:39;;;;;;;22.00;14.02;;;;;0.40;99454.00;;;;5072479;28;20475;-61
2023/02/16 07:03:05;;;;;;;20.60;13.85;;;;;0.50;99458.00;;;;5072182;28;20124;-61
2023/02/16 07:05:32;;;;;;;21.58;13.82;;;;;0.50;99454.00;;;;5071707;28;20131;-62
2023/02/16 07:07:58;;;;;;;20.25;14.13;;;;;0.50;99462.00;;;;5071072;28;20448;-62
2023/02/16 07:10:25;;;;;;;20.98;13.93;;;;;0.50;99475.00;;;;5072369;28;20086;-63
2023/02/16 07:12:56;;;;;;;21.48;15.07;;;;;0.50;99459.00;;;;5072002;28;20074;-62
2023/02/16 07:15:22;;;;;;;19.95;13.30;;;;;0.60;99463.00;;;;5071457;28;20040;-62
2023/02/16 07:17:49;;;;;;;24.13;15.80;;;;;0.70;99474.00;;;;5070769;28;20052;-62
2023/02/16 07:20:16;;;;;;;21.02;14.15;;;;;0.90;99474.00;;;;5071999;28;20040;-61
2023/02/16 07:22:43;;;;;;;22.30;14.57;;;;;1.00;99481.00;;;;5071974;28;20044;-62
2023/02/16 07:25:09;;;;;;;20.33;13.90;;;;;1.10;99482.00;;;;5071458;28;20046;-62
2023/02/16 07:27:36;;;;;;;19.10;13.55;;;;;1.20;99474.00;;;;5071882;28;20056;-61
2023/02/16 07:30:03;;;;;;;19.52;13.65;;;;;1.30;99485.00;;;;5070849;28;20044;-61
2023/02/16 07:32:29;;;;;;;24.65;14.48;;;;;1.40;99489.00;;;;5071860;28;20044;-62
2023/02/16 07:34:56;;;;;;;20.35;13.32;;;;;1.50;99488.00;;;;5071478;28;20036;-62
2023/02/16 07:37:23;;;;;;;20.75;13.73;;;;;1.50;99489.00;;;;5071937;28;20036;-61
2023/02/16 07:39:49;;;;;;;21.83;14.65;;;;;1.50;99496.00;;;;5071081;28;20044;-61
2023/02/16 07:42:16;;;;;;;25.10;16.05;;;;;1.60;99490.00;;;;5072097;28;20405;-61
2023/02/16 07:44:46;;;;;;;22.35;14.88;;;;;1.70;99494.00;;;;5070350;28;20045;-62
2023/02/16 07:47:13;;;;;;;21.73;14.65;;;;;1.80;99504.00;;;;5071883;28;20045;-62
2023/02/16 07:49:40;;;;;;;23.80;15.02;;;;;1.80;99504.00;;;;5072056;28;20484;-62
2023/02/16 07:52:06;;;;;;;23.75;15.57;;;;;1.90;99512.00;;;;5070854;28;20045;-62
2023/02/16 07:54:33;;;;;;;23.83;15.65;;;;;2.00;99504.00;;;;5073939;28;20497;-62
2023/02/16 07:56:59;;;;;;;24.42;15.95;;;;;2.00;99510.00;;;;5076176;28;20044;-60
2023/02/16 07:59:26;;;;;;;23.48;15.25;;;;;1.90;99506.00;;;;5074555;28;20044;-61
2023/02/16 08:01:52;;;;;;;23.15;15.70;;;;;1.90;99499.00;;;;5075963;28;20459;-61
2023/02/16 08:04:19;;;;;;;21.80;15.07;;;;;1.70;99504.00;;;;5075285;28;20098;-60
2023/02/16 08:06:47;;;;;;;23.90;15.05;;;;;1.70;99495.00;;;;5075644;28;20047;-61
2023/02/16 08:09:17;;;;;;;22.65;15.30;;;;;1.80;99491.00;;;;5075929;28;20508;-61
2023/02/16 08:11:46;;;;;;;23.60;15.77;;;;;2.00;99496.00;;;;5075821;28;20041;-61
2023/02/16 08:14:14;;;;;;;21.70;14.98;;;;;2.20;99493.00;;;;5075237;28;20044;-62
2023/02/16 08:16:41;;;;;;;23.98;15.32;;;;;2.40;99496.00;;;;5075798;28;20033;-62
2023/02/16 08:19:09;;;;;;;30.83;15.13;;;;;2.50;99488.00;;;;5074326;28;20041;-61
2023/02/16 08:21:36;;;;;;;22.90;15.73;;;;;2.70;99487.00;;;;5074223;28;20519;-61
2023/02/16 08:24:07;;;;;;;23.85;15.88;;;;;2.70;99490.00;;;;5075213;28;20052;-62
2023/02/16 08:26:38;;;;;;;22.83;16.42;;;;;2.80;99494.00;;;;5075563;28;20090;-61
2023/02/16 08:29:12;;;;;;;22.38;15.55;;;;;2.90;99499.00;;;;5074499;28;20501;-62
2023/02/16 08:31:38;;;;;;;21.38;15.40;;;;;3.10;99498.00;;;;5073911;28;20060;-62
2023/02/16 08:34:05;;;;;;;26.05;16.83;;;;;3.20;99510.00;;;;5073315;28;20047;-60
2023/02/16 08:36:37;;;;;;;23.50;15.18;;;;;3.30;99506.00;;;;5075205;28;20036;-62
2023/02/16 08:39:06;;;;;;;22.65;15.73;;;;;3.50;99500.00;;;;5075083;28;20050;-62
2023/02/16 08:41:35;;;;;;;24.48;17.67;;;;;3.70;99509.00;;;;5074941;28;20489;-62
2023/02/16 08:44:03;;;;;;;26.45;18.45;;;;;3.80;99506.00;;;;5074814;28;20128;-62
2023/02/16 08:46:31;;;;;;;27.20;18.27;;;;;4.00;99518.00;;;;5074681;28;20123;-62
2023/02/16 08:48:59;;;;;;;29.17;18.33;;;;;4.10;99517.00;;;;5073718;28;20055;-62
2023/02/16 08:51:27;;;;;;;29.55;18.80;;;;;4.20;99520.00;;;;5074711;28;20048;-62
2023/02/16 08:53:57;;;;;;;29.15;20.33;;;;;4.20;99520.00;;;;5073475;28;20049;-62
2023/02/16 08:56:24;;;;;;;28.85;19.33;;;;;4.30;99525.00;;;;5074012;28;20299;-62
2023/02/16 08:58:51;;;;;;;32.83;20.58;;;;;4.40;99520.00;;;;5074636;28;20045;-61
2023/02/16 09:01:17;;;;;;;32.53;21.52;;;;;4.50;99526.00;;;;5074733;28;20416;-62
2023/02/16 09:03:45;;;;;;;31.05;22.10;;;;;4.70;99531.00;;;;5075110;28;20040;-61
2023/02/16 09:06:14;;;;;;;32.97;21.80;;;;;4.80;99526.00;;;;5073517;28;20506;-61
2023/02/16 09:08:41;;;;;;;35.40;22.42;;;;;5.00;99528.00;;;;5075256;28;20046;-61
2023/02/16 09:11:11;;;;;;;31.35;21.00;;;;;5.10;99532.00;;;;5074780;28;20048;-60
2023/02/16 09:13:39;;;;;;;31.67;21.15;;;;;5.10;99525.00;;;;5075166;28;20433;-61
2023/02/16 09:16:12;;;;;;;31.13;21.08;;;;;5.20;99530.00;;;;5075036;28;20072;-61
2023/02/16 09:18:39;;;;;;;30.23;20.98;;;;;5.40;99531.00;;;;5078785;28;20045;-60
2023/02/16 09:21:11;;;;;;;32.75;21.63;;;;;5.60;99534.00;;;;5076392;28;20056;-61
2023/02/16 09:23:39;;;;;;;32.83;21.33;;;;;5.80;99519.00;;;;5075477;28;20131;-62
2023/02/16 09:26:08;;;;;;;32.03;22.35;;;;;6.60;99504.00;;;;5073728;28;20036;-62
2023/02/16 09:28:37;;;;;;;33.03;20.80;;;;;7.20;99520.00;;;;5074263;28;20429;-62
2023/02/16 09:31:24;;;;;;;27.75;20.48;;;;;7.20;99525.00;;;;5074234;28;20451;-62
2023/02/16 09:33:57;;;;;;;30.52;21.50;;;;;7.10;99528.00;;;;5074033;28;20060;-62
2023/02/16 09:36:23;;;;;;;33.97;21.25;;;;;7.10;99520.00;;;;5073483;28;20037;-63
2023/02/16 09:38:50;;;;;;;33.15;22.58;;;;;7.10;99518.00;;;;5073953;28;20512;-61
2023/02/16 09:41:30;;;;;;;31.70;21.00;;;;;7.30;99521.00;;;;5073864;28;20045;-61
2023/02/16 09:44:25;;;;;;;28.90;20.67;;;;;7.40;99518.00;;;;5073920;28;20051;-61
2023/02/16 09:46:55;;;;;;;28.35;19.30;;;;;7.50;99523.00;;;;5057674;28;20501;-61
2023/02/16 09:49:24;;;;;;;27.25;20.08;;;;;7.70;99512.00;;;;5073660;28;20040;-61
2023/02/16 09:52:34;;;;;;;29.80;20.05;;;;;7.90;99516.00;;;;5073450;28;20051;-61
2023/02/16 09:55:10;;;;;;;30.95;20.88;;;;;8.10;99516.00;;;;5073296;28;20453;-61
2023/02/16 09:57:40;;;;;;;27.08;20.30;;;;;8.20;99513.00;;;;5073450;28;20037;-61
2023/02/16 10:00:20;;;;;;;33.08;22.85;;;;;8.40;99512.00;;;;5073529;28;20086;-61
2023/02/16 10:03:31;;;;;;;34.63;21.77;;;;;8.50;99512.00;;;;5073687;28;20054;-62
2023/02/16 10:06:21;;;;;;;26.90;18.75;;;;;8.70;99508.00;;;;5072997;28;20048;-62
2023/02/16 10:08:56;;;;;;;27.60;18.67;;;;;8.80;99512.00;;;;5065969;28;20065;-62
2023/02/16 10:11:47;;;;;;;29.55;18.98;;;;;8.90;99503.00;;;;5073390;28;20044;-62
2023/02/16 10:14:32;;;;;;;25.92;18.92;;;;;9.10;99507.00;;;;5072756;28;20127;-62
2023/02/16 10:17:11;;;;;;;27.42;19.73;;;;;9.40;99509.00;;;;5072445;28;20067;-61
2023/02/16 10:20:05;;;;;;;26.02;18.45;;;;;9.70;99508.00;;;;5073072;28;20040;-62
2023/02/16 10:22:38;;;;;;;36.20;21.88;;;;;9.90;99508.00;;;;5073345;28;20401;-62
2023/02/16 10:25:14;;;;;;;29.52;18.80;;;;;10.20;99510.00;;;;5072569;28;20522;-63
2023/02/16 10:27:44;;;;;;;24.45;17.80;;;;;10.40;99509.00;;;;5072868;28;20051;-63
2023/02/16 10:30:14;;;;;;;26.48;17.38;;;;;10.50;99520.00;;;;5073298;28;20443;-62
2023/02/16 10:32:53;;;;;;;36.85;24.55;;;;;10.60;99523.00;;;;5073098;28;20044;-63
2023/02/16 10:35:43;;;;;;;32.40;20.88;;;;;10.70;99520.00;;;;5072498;28;20066;-64
2023/02/16 10:38:30;;;;;;;26.20;17.13;;;;;10.90;99506.00;;;;5072705;28;20039;-61
2023/02/16 10:41:24;;;;;;;23.38;16.65;;;;;11.20;99510.00;;;;5072840;28;20049;-62
2023/02/16 10:44:01;;;;;;;20.80;13.57;;;;;11.50;99504.00;;;;5071895;28;20048;-63
2023/02/16 10:46:37;;;;;;;24.55;16.25;;;;;11.80;99509.00;;;;5071166;28;20045;-63
2023/02/16 10:49:03;;;;;;;20.00;15.10;;;;;12.00;99496.00;;;;5072588;28;20072;-62
2023/02/16 10:51:35;;;;;;;14.13;11.15;;;;;12.10;99496.00;;;;5071272;28;20102;-61
2023/02/16 10:54:21;;;;;;;16.85;11.93;;;;;12.20;99496.00;;;;5072400;28;20048;-63
2023/02/16 10:57:04;;;;;;;17.58;11.95;;;;;12.20;99494.00;;;;5072575;28;20127;-63
2023/02/16 10:59:45;;;;;;;19.58;11.63;;;;;12.20;99493.00;;;;5071278;28;20040;-62
2023/02/16 11:02:23;;;;;;;17.98;12.48;;;;;12.20;99490.00;;;;5072483;28;20120;-62
2023/02/16 11:04:53;;;;;;;17.23;10.52;;;;;12.30;99496.00;;;;5072060;28;20037;-62
2023/02/16 11:07:22;;;;;;;15.02;10.07;;;;;12.30;99490.00;;;;5071018;28;20067;-61
2023/02/16 11:09:54;;;;;;;16.48;10.23;;;;;12.30;99490.00;;;;5072233;28;20045;-62
2023/02/16 11:12:32;;;;;;;22.35;11.10;;;;;12.40;99496.00;;;;5072326;28;20404;-62
2023/02/16 11:15:17;;;;;;;16.00;10.18;;;;;12.50;99485.00;;;;5071700;28;20056;-62
2023/02/16 11:17:53;;;;;;;17.08;10.05;;;;;12.50;99489.00;;;;5071079;28;20051;-62
2023/02/16 11:20:46;;;;;;;24.17;11.45;;;;;12.50;99478.00;;;;5072772;28;20411;-62
2023/02/16 11:23:16;;;;;;;20.13;10.73;;;;;12.60;99479.00;;;;5071023;28;20492;-62
2023/02/16 11:25:52;;;;;;;17.60;10.88;;;;;12.70;99480.00;;;;5070669;28;20052;-61
2023/02/16 11:28:31;;;;;;;14.80;8.70;;;;;12.70;99472.00;;;;5072022;28;20060;-61
2023/02/16 11:31:02;;;;;;;13.70;8.90;;;;;12.70;99484.00;;;;5072634;28;20048;-59
2023/02/16 11:33:30;;;;;;;12.43;8.52;;;;;12.80;99488.00;;;;5072210;28;20044;-61
2023/02/16 11:35:57;;;;;;;13.98;9.57;;;;;12.90;99488.00;;;;5071510;28;20041;-60
2023/02/16 11:38:35;;;;;;;13.45;9.32;;;;;13.00;99487.00;;;;5070737;28;20056;-60
2023/02/16 11:41:04;;;;;;;11.85;8.80;;;;;13.00;99489.00;;;;5072028;28;20397;-61
2023/02/16 11:43:36;;;;;;;12.45;8.63;;;;;12.90;99483.00;;;;5071955;28;20472;-61
2023/02/16 11:46:16;;;;;;;13.35;8.77;;;;;12.80;99494.00;;;;5070469;28;20048;-62
2023/02/16 11:48:43;;;;;;;11.80;8.82;;;;;12.80;99478.00;;;;5072127;28;20044;-62
2023/02/16 11:51:14;;;;;;;12.40;8.95;;;;;12.90;99473.00;;;;5071791;28;20099;-62
2023/02/16 11:53:43;;;;;;;13.57;9.05;;;;;12.90;99479.00;;;;5071660;28;20051;-62
2023/02/16 11:56:12;;;;;;;13.57;9.45;;;;;13.00;99466.00;;;;5071198;28;20052;-61
2023/02/16 11:58:39;;;;;;;12.60;9.43;;;;;13.10;99476.00;;;;5071759;28;20489;-62
2023/02/16 12:01:24;;;;;;;10.95;7.97;;;;;13.20;99473.00;;;;5071569;28;20053;-61
2023/02/16 12:04:12;;;;;;;14.18;9.02;;;;;13.30;99472.00;;;;5071561;28;20048;-62
2023/02/16 12:06:47;;;;;;;10.85;8.52;;;;;13.40;99469.00;;;;5071407;28;20064;-62
2023/02/16 12:09:40;;;;;;;11.77;8.70;;;;;13.50;99471.00;;;;5071880;28;20428;-61
2023/02/16 12:12:26;;;;;;;9.98;8.30;;;;;13.50;99464.00;;;;5071669;28;20094;-62
2023/02/16 12:15:02;;;;;;;10.85;7.78;;;;;13.60;99461.00;;;;5070952;28;20044;-62
2023/02/16 12:18:00;;;;;;;11.32;7.93;;;;;13.60;99453.00;;;;5071605;28;20057;-61
2023/02/16 12:20:34;;;;;;;14.90;8.38;;;;;13.70;99458.00;;;;5071582;28;20082;-61
2023/02/16 12:23:22;;;;;;;13.35;8.80;;;;;13.80;99451.00;;;;5071379;28;20066;-61
2023/02/16 12:26:25;;;;;;;12.63;8.32;;;;;13.80;99449.00;;;;5070856;28;20044;-61
2023/02/16 12:29:10;;;;;;;16.58;8.75;;;;;13.80;99453.00;;;;5071552;28;20060;-61
2023/02/16 12:32:01;;;;;;;12.77;8.05;;;;;13.90;99451.00;;;;5071433;28;20139;-61
2023/02/16 12:35:13;;;;;;;10.50;7.97;;;;;14.00;99449.00;;;;5070827;28;20045;-61
2023/02/16 12:37:48;;;;;;;14.25;8.35;;;;;14.10;99444.00;;;;5056101;28;20067;-61
2023/02/16 12:40:46;;;;;;;11.20;7.95;;;;;14.30;99438.00;;;;5072052;28;20149;-61
2023/02/16 12:43:25;;;;;;;13.45;8.60;;;;;14.40;99443.00;;;;5073700;28;20432;-61
2023/02/16 12:45:56;;;;;;;14.07;8.27;;;;;14.60;99436.00;;;;5075213;28;20049;-61
2023/02/16 12:48:52;;;;;;;13.30;8.75;;;;;14.70;99428.00;;;;5075673;28;20040;-61
2023/02/16 12:51:31;;;;;;;11.27;8.40;;;;;14.70;99428.00;;;;5075284;28;20058;-61
2023/02/16 12:54:21;;;;;;;13.30;7.85;;;;;14.80;99428.00;;;;5074978;28;20452;-63
2023/02/16 12:56:58;;;;;;;11.25;8.20;;;;;14.90;99429.00;;;;5074974;28;20507;-62
2023/02/16 12:59:45;;;;;;;13.02;8.10;;;;;15.00;99421.00;;;;5075298;28;20048;-61
2023/02/16 13:02:20;;;;;;;13.07;8.43;;;;;15.10;99424.00;;;;5075618;28;20393;-63
2023/02/16 13:04:58;;;;;;;12.45;8.27;;;;;15.10;99429.00;;;;5074561;28;20501;-63
2023/02/16 13:07:31;;;;;;;10.20;8.00;;;;;15.00;99418.00;;;;5074579;28;20041;-62
2023/02/16 13:10:16;;;;;;;13.40;8.75;;;;;15.00;99424.00;;;;5074564;28;20040;-62
2023/02/16 13:12:52;;;;;;;12.50;8.07;;;;;15.00;99418.00;;;;5074490;28;20090;-62
2023/02/16 13:15:32;;;;;;;13.77;8.45;;;;;15.00;99420.00;;;;5074201;28;20079;-62
2023/02/16 13:18:10;;;;;;;14.45;8.10;;;;;15.00;99414.00;;;;5074560;28;20041;-62